Map

Track Data

SID SEASON NUMBER BASIN SUBBASIN NAME ISO_TIME NATURE LAT LON WMO_WIND WMO_PRES WMO_AGENCY TRACK_TYPE DIST2LAND LANDFALL IFLAG USA_AGENCY USA_ATCF_ID USA_LAT USA_LON USA_RECORD USA_STATUS USA_WIND USA_PRES USA_SSHS USA_R34_NE USA_R34_SE USA_R34_SW USA_R34_NW USA_R50_NE USA_R50_SE USA_R50_SW USA_R50_NW USA_R64_NE USA_R64_SE USA_R64_SW USA_R64_NW USA_POCI USA_ROCI USA_RMW USA_EYE TOKYO_LAT TOKYO_LON TOKYO_GRADE TOKYO_WIND TOKYO_PRES TOKYO_R50_DIR TOKYO_R50_LONG TOKYO_R50_SHORT TOKYO_R30_DIR TOKYO_R30_LONG TOKYO_R30_SHORT TOKYO_LAND CMA_LAT CMA_LON CMA_CAT CMA_WIND CMA_PRES HKO_LAT HKO_LON HKO_CAT HKO_WIND HKO_PRES NEWDELHI_LAT NEWDELHI_LON NEWDELHI_GRADE NEWDELHI_WIND NEWDELHI_PRES NEWDELHI_CI NEWDELHI_DP NEWDELHI_POCI REUNION_LAT REUNION_LON REUNION_TYPE REUNION_WIND REUNION_PRES REUNION_TNUM REUNION_CI REUNION_RMW REUNION_R34_NE REUNION_R34_SE REUNION_R34_SW REUNION_R34_NW REUNION_R50_NE REUNION_R50_SE REUNION_R50_SW REUNION_R50_NW REUNION_R64_NE REUNION_R64_SE REUNION_R64_SW REUNION_R64_NW BOM_LAT BOM_LON BOM_TYPE BOM_WIND BOM_PRES BOM_TNUM BOM_CI BOM_RMW BOM_R34_NE BOM_R34_SE BOM_R34_SW BOM_R34_NW BOM_R50_NE BOM_R50_SE BOM_R50_SW BOM_R50_NW BOM_R64_NE BOM_R64_SE BOM_R64_SW BOM_R64_NW BOM_ROCI BOM_POCI BOM_EYE BOM_POS_METHOD BOM_PRES_METHOD NADI_LAT NADI_LON NADI_CAT NADI_WIND NADI_PRES WELLINGTON_LAT WELLINGTON_LON WELLINGTON_WIND WELLINGTON_PRES DS824_LAT DS824_LON DS824_STAGE DS824_WIND DS824_PRES TD9636_LAT TD9636_LON TD9636_STAGE TD9636_WIND TD9636_PRES TD9635_LAT TD9635_LON TD9635_WIND TD9635_PRES TD9635_ROCI NEUMANN_LAT NEUMANN_LON NEUMANN_CLASS NEUMANN_WIND NEUMANN_PRES MLC_LAT MLC_LON MLC_CLASS MLC_WIND MLC_PRES USA_GUST BOM_GUST BOM_GUST_PER REUNION_GUST REUNION_GUST_PER USA_SEAHGT USA_SEARAD_NE USA_SEARAD_SE USA_SEARAD_SW USA_SEARAD_NW STORM_SPEED STORM_DIR
1944071S10059 1944 19 SI MM NOT_NAMED 1944-03-11 06:00:00 NR -9.70000 59.2000 reunion main 1079 1065 _____O________ -1 -9.70000 59.2000 99 9.90000 3 227
1944071S10059 1944 19 SI MM NOT_NAMED 1944-03-11 09:00:00 NR -9.79805 59.0950 main 1065 1051 _____P________ -1 -9.79805 59.0950 99 3 227
1944071S10059 1944 19 SI MM NOT_NAMED 1944-03-11 12:00:00 NR -9.89984 58.9869 main 1051 1037 _____P________ -1 -9.89984 58.9869 99 3 226
1944071S10059 1944 19 SI MM NOT_NAMED 1944-03-11 15:00:00 NR -10.0091 58.8726 main 1037 1023 _____P________ -1 -10.0091 58.8726 99 3 226
1944071S10059 1944 19 SI MM NOT_NAMED 1944-03-11 18:00:00 NR -10.1297 58.7491 main 1012 995 _____P________ -1 -10.1297 58.7491 99 4 225
1944071S10059 1944 19 SI MM NOT_NAMED 1944-03-11 21:00:00 NR -10.2653 58.6132 main 995 981 _____P________ -1 -10.2653 58.6132 99 4 224
1944071S10059 1944 19 SI MM NOT_NAMED 1944-03-12 00:00:00 NR -10.4197 58.4618 main 981 953 _____P________ -1 -10.4197 58.4618 99 5 224
1944071S10059 1944 19 SI MM NOT_NAMED 1944-03-12 03:00:00 NR -10.5967 58.2918 main 953 926 _____P________ -1 -10.5967 58.2918 99 5 223
1944071S10059 1944 19 SI MM NOT_NAMED 1944-03-12 06:00:00 NR -10.8000 58.1000 reunion main 926 898 _____O________ -1 -10.8000 58.1000 99 9.90000 6 223
1944071S10059 1944 19 SI MM NOT_NAMED 1944-03-12 09:00:00 NR -11.0317 57.8846 main 898 869 _____P________ -1 -11.0317 57.8846 99 7 222
1944071S10059 1944 19 SI MM NOT_NAMED 1944-03-12 12:00:00 NR -11.2876 57.6493 main 858 831 _____P________ -1 -11.2876 57.6493 99 7 222
1944071S10059 1944 19 SI MM NOT_NAMED 1944-03-12 15:00:00 NR -11.5617 57.3989 main 828 802 _____P________ -1 -11.5617 57.3989 99 8 222
1944071S10059 1944 19 SI MM NOT_NAMED 1944-03-12 18:00:00 NR -11.8481 57.1386 main 791 761 _____P________ -1 -11.8481 57.1386 99 8 222
1944071S10059 1944 19 SI MM NOT_NAMED 1944-03-12 21:00:00 NR -12.1410 56.8735 main 761 721 _____P________ -1 -12.1410 56.8735 99 8 222
1944071S10059 1944 19 SI MM NOT_NAMED 1944-03-13 00:00:00 NR -12.4345 56.6085 main 721 693 _____P________ -1 -12.4345 56.6085 99 8 221
1944071S10059 1944 19 SI MM NOT_NAMED 1944-03-13 03:00:00 NR -12.7228 56.3490 main 682 652 _____P________ -1 -12.7228 56.3490 99 8 221
1944071S10059 1944 19 SI MM NOT_NAMED 1944-03-13 06:00:00 NR -13.0000 56.1000 reunion main 652 623 _____O________ -1 -13.0000 56.1000 99 9.90000 7 223
1944071S10059 1944 19 SI MM NOT_NAMED 1944-03-13 09:00:00 NR -13.1992 55.8950 main 623 595 _____P________ -1 -13.1992 55.8950 99 5 225
1944071S10059 1944 19 SI MM NOT_NAMED 1944-03-13 12:00:00 NR -13.3847 55.7005 main 595 567 _____P________ -1 -13.3847 55.7005 99 5 225
1944071S10059 1944 19 SI MM NOT_NAMED 1944-03-13 15:00:00 NR -13.5670 55.5120 main 567 543 _____P________ -1 -13.5670 55.5120 99 5 224
1944071S10059 1944 19 SI MM NOT_NAMED 1944-03-13 18:00:00 NR -13.7566 55.3250 main 540 513 _____P________ -1 -13.7566 55.3250 99 5 223
1944071S10059 1944 19 SI MM NOT_NAMED 1944-03-13 21:00:00 NR -13.9642 55.1349 main 513 486 _____P________ -1 -13.9642 55.1349 99 6 220
1944071S10059 1944 19 SI MM NOT_NAMED 1944-03-14 00:00:00 NR -14.2002 54.9372 main 486 458 _____P________ -1 -14.2002 54.9372 99 6 218
1944071S10059 1944 19 SI MM NOT_NAMED 1944-03-14 03:00:00 NR -14.4753 54.7271 main 458 432 _____P________ -1 -14.4753 54.7271 99 7 215
1944071S10059 1944 19 SI MM NOT_NAMED 1944-03-14 06:00:00 NR -14.8000 54.5000 reunion main 432 397 _____O________ -1 -14.8000 54.5000 99 9.90000 9 215
1944071S10059 1944 19 SI MM NOT_NAMED 1944-03-14 09:00:00 NR -15.2218 54.1813 main 397 365 _____P________ -1 -15.2218 54.1813 99 11 216
1944071S10059 1944 19 SI MM NOT_NAMED 1944-03-14 12:00:00 NR -15.6940 53.8382 main 355 330 _____P________ -1 -15.6940 53.8382 99 12 214
1944071S10059 1944 19 SI MM NOT_NAMED 1944-03-14 15:00:00 NR -16.2043 53.4854 main 333 318 _____P________ -1 -16.2043 53.4854 99 13 213
1944071S10059 1944 19 SI MM NOT_NAMED 1944-03-14 18:00:00 NR -16.7403 53.1375 main 313 307 _____P________ -1 -16.7403 53.1375 99 13 211
1944071S10059 1944 19 SI MM NOT_NAMED 1944-03-14 21:00:00 NR -17.2900 52.8096 main 312 307 _____P________ -1 -17.2900 52.8096 99 13 208
1944071S10059 1944 19 SI MM NOT_NAMED 1944-03-15 00:00:00 NR -17.8411 52.5170 main 307 301 _____P________ -1 -17.8411 52.5170 99 12 205
1944071S10059 1944 19 SI MM NOT_NAMED 1944-03-15 03:00:00 NR -18.3818 52.2752 main 306 290 _____P________ -1 -18.3818 52.2752 99 11 200
1944071S10059 1944 19 SI MM NOT_NAMED 1944-03-15 06:00:00 NR -18.9000 52.1000 reunion main 295 295 _____O________ -1 -18.9000 52.1000 99 9.90000 10 193
1944071S10059 1944 19 SI MM NOT_NAMED 1944-03-15 09:00:00 NR -19.3850 52.0362 main 304 304 _____P________ -1 -19.3850 52.0362 99 10 183
1944071S10059 1944 19 SI MM NOT_NAMED 1944-03-15 12:00:00 NR -19.8581 52.0382 main 320 320 _____P________ -1 -19.8581 52.0382 99 9 177
1944071S10059 1944 19 SI MM NOT_NAMED 1944-03-15 15:00:00 NR -20.3148 52.0948 main 334 314 _____P________ -1 -20.3148 52.0948 99 9 171
1944071S10059 1944 19 SI MM NOT_NAMED 1944-03-15 18:00:00 NR -20.7508 52.1949 main 313 300 _____P________ -1 -20.7508 52.1949 99 9 166
1944071S10059 1944 19 SI MM NOT_NAMED 1944-03-15 21:00:00 NR -21.1618 52.3271 main 300 283 _____P________ -1 -21.1618 52.3271 99 8 162
1944071S10059 1944 19 SI MM NOT_NAMED 1944-03-16 00:00:00 NR -21.5432 52.4799 main 283 277 _____P________ -1 -21.5432 52.4799 99 8 158
1944071S10059 1944 19 SI MM NOT_NAMED 1944-03-16 03:00:00 NR -21.8908 52.6414 main 283 272 _____P________ -1 -21.8908 52.6414 99 7 156
1944071S10059 1944 19 SI MM NOT_NAMED 1944-03-16 06:00:00 NR -22.2000 52.8000 reunion main 276 271 _____O________ -1 -22.2000 52.8000 99 9.90000 6 154
1944071S10059 1944 19 SI MM NOT_NAMED 1944-03-16 09:00:00 NR -22.4682 52.9458 main 281 272 _____P________ -1 -22.4682 52.9458 99 6 153
1944071S10059 1944 19 SI MM NOT_NAMED 1944-03-16 12:00:00 NR -22.6991 53.0784 main 275 273 _____P________ -1 -22.6991 53.0784 99 5 151
1944071S10059 1944 19 SI MM NOT_NAMED 1944-03-16 15:00:00 NR -22.8980 53.1996 main 280 280 _____P________ -1 -22.8980 53.1996 99 4 150
1944071S10059 1944 19 SI MM NOT_NAMED 1944-03-16 18:00:00 NR -23.0704 53.3111 main 287 280 _____P________ -1 -23.0704 53.3111 99 4 148
1944071S10059 1944 19 SI MM NOT_NAMED 1944-03-16 21:00:00 NR -23.2214 53.4150 main 288 288 _____P________ -1 -23.2214 53.4150 99 3 147
1944071S10059 1944 19 SI MM NOT_NAMED 1944-03-17 00:00:00 NR -23.3565 53.5132 main 298 292 _____P________ -1 -23.3565 53.5132 99 3 146
1944071S10059 1944 19 SI MM NOT_NAMED 1944-03-17 03:00:00 NR -23.4809 53.6075 main 301 295 _____P________ -1 -23.4809 53.6075 99 3 145
1944071S10059 1944 19 SI MM NOT_NAMED 1944-03-17 06:00:00 NR -23.6000 53.7000 reunion main 305 _____O________ -1 -23.6000 53.7000 99 9.90000 3 144

About IBTrACS Database

This database is a web-friendly format of International Best Track Archive for Climate Stewardship (IBTrACS), a global best track data archive curated by NOAA dating back to 1842.

Updated: 2021-12-03